AirNav   Everest Fuels
 
 906 users online  

OG51 Six Springs Ranch Airport
Madras, Oregon, USA

GOING TO MADRAS?


FAA INFORMATION EFFECTIVE 21 MAY 2020

Location

FAA Identifier: OG51
Lat/Long: 44-29-00.4500N 120-54-57.1100W
44-29.007500N 120-54.951833W
44.4834583,-120.9158639
(estimated)
Elevation: 3780 ft. / 1152 m
Time zone: UTC -7 (UTC -8 during Standard Time)
Zip code: 97741

Airport Operations

Airport use: Private use. Permission required prior to landing
Activation date: 02/2005
Control tower: no
ARTCC: SEATTLE CENTER
FSS: MC MINNVILLE FLIGHT SERVICE STATION
Attendance: UNATNDD
Wind indicator: yes
Segmented circle: no

Airport Communications

WX AWOS-3PT at S39 (12 nm S): 118.325 (541-447-4060)
WX AWOS-3PT at S33 (15 nm NW): 132.425 (541-475-0494)
WX ASOS at RDM (17 nm SW): 119.025 (541-504-8743)

Nearby radio navigation aids

VOR radial/distance  VOR name  Freq  Var
DSDr032/21.6DESCHUTES VORTAC117.6018E

Airport Services

Runway Information

Runway 15/33

Dimensions: 3400 x 40 ft. / 1036 x 12 m
Surface: asphalt
RUNWAY 15  RUNWAY 33
Traffic pattern: leftleft
Obstructions: 20 ft. trees, 300 ft. from runwaynone

Airport Ownership and Management from official FAA records

Ownership: Privately-owned
Owner: KELLY BRUUN
10990 SE GRIZZLY MT. RD
MADRAS, OR 97741
Phone 503-781-5353
Manager: KELLY BRUUN
10990 SE GRIZZLY MT. RD
MADRAS, OR 97741
Phone 503-781-5353
OTHER CONTACT KURK BRUUN 503-539-7606 KURT@LBRUUN.COM

Airport Operational Statistics

Aircraft based on the field: 3
Single engine airplanes: 1
Multi engine airplanes: 2
    

Additional Remarks

PAINTED RWY NUMBERS, CENTER LINE AND EDGE STRIPING.
FOR CD CTC SEATTLE ARTCC AT 253-351-3694.

Instrument Procedures

There are no published instrument procedures at OG51.

Some nearby airports with instrument procedures:

S39 - Prineville Airport (12 nm S)
S33 - Madras Municipal Airport (15 nm NW)
KRDM - Roberts Field Airport (17 nm SW)
KBDN - Bend Municipal Airport (26 nm SW)
S21 - Sunriver Airport (43 nm SW)
 
Loc | Ops | Rwys | IFR | FBO | Links
Com | Nav | Svcs | Stats | Notes
Area around OG51 (Six Springs Ranch Airport)
 
Road maps at: MapQuest Bing Google
 
Aerial photo
WARNING: Photo may not be current or correct
Aerial photo of OG51 (Six Springs Ranch Airport)
Photo taken 10-Jun-2005

Do you have a better or more recent aerial photo of Six Springs Ranch Airport that you would like to share? If so, please send us your photo.

 
Sectional chart

 
Airport distance calculator
Flying to Six Springs Ranch Airport? Find the distance to fly.

From to OG51

Sunrise and sunset
Times for 06-Jun-2020
 Local
(UTC-7)
 Zulu
(UTC)
Morning civil twilight04:4411:44
Sunrise05:2012:20
Sunset20:4503:45
Evening civil twilight21:2104:21

Current date and time
Zulu (UTC)  07-Jun-2020 01:39:20
Local (UTC-7)  06-Jun-2020 18:39:20
 
METAR
KS39 
12nm S 
070115Z AUTO 26016G23KT 10SM BKN090 11/01 A2982 RMK AO2
KS33 
15nm NW 
070055Z AUTO 24013G18KT 10SM SCT060 BKN075 BKN100 12/01 A2983 RMK AO2
KRDM 
17nm SW 
070056Z 29013G20KT 10SM BKN090 11/00 A2981 RMK AO2 PK WND 29027/0007 SLP096 T01110000
TAF
KRDM 
17nm SW 
062136Z 0622/0718 29014KT P6SM VCSH SCT050 BKN070 FM070000 29017G25KT P6SM VCSH BKN050 OVC060 FM070400 30017G24KT P6SM OVC050 FM070900 23015KT P6SM OVC050 FM071500 28014KT P6SM OVC040
NOTAMs
Click for the latest NOTAMs
NOTAMs are issued by the DoD/FAA and will open in a separate window not controlled by AirNav.

 

 
 

Would you like to see your business listed on this page?

 If your business provides an interesting product or service to pilots, flight crews, aircraft, or users of the Six Springs Ranch Airport, you should consider listing it here.  To start the listing process, click on the button below
 
Add a business
 

Other Pages about Six Springs Ranch Airport

sixspringsranch.com/airport.html
 
Update a link
 
Copyright © AirNav, LLC. All rights reserved. Privacy Policy  Contact